Time;durP1;ratioP1;P1;durP2;ratioP2;P2;SDS_P1;SDS_P2;PMS_P1;PMS_P2;Temp;Humidity;BMP_temperature;BMP_pressure;BME280_temperature;BME280_humidity;BME280_pressure;Samples;Min_cycle;Max_cycle;Signal;HPM_P1;HPM_P2
2023/06/12 00:00:52;;;;;;;4.78;4.38;;;28.20;30.20;28.80;100736.00;;;;5011454;28;20184;-55
2023/06/12 00:03:25;;;;;;;4.60;4.20;;;28.20;30.30;28.60;100737.00;;;;5013330;28;20543;-55
2023/06/12 00:05:51;;;;;;;4.80;4.40;;;28.20;30.30;28.70;100729.00;;;;5007166;28;20234;-55
2023/06/12 00:08:17;;;;;;;5.22;4.72;;;28.10;30.30;28.70;100725.00;;;;5017896;28;20676;-56
2023/06/12 00:10:44;;;;;;;5.13;4.70;;;28.10;30.40;28.70;100725.00;;;;5019134;28;20182;-56
2023/06/12 00:13:10;;;;;;;5.35;4.95;;;28.10;30.50;28.70;100720.00;;;;5014735;28;20219;-55
2023/06/12 00:15:36;;;;;;;4.80;4.50;;;28.10;30.70;28.60;100729.00;;;;4996288;28;20202;-54
2023/06/12 00:18:03;;;;;;;4.97;4.53;;;28.00;30.60;28.60;100724.00;;;;5014746;28;20175;-56
2023/06/12 00:20:29;;;;;;;4.80;4.40;;;28.00;30.80;28.60;100728.00;;;;5014152;28;20221;-55
2023/06/12 00:22:56;;;;;;;5.20;4.80;;;28.10;31.00;28.60;100723.00;;;;5021997;28;20191;-55
2023/06/12 00:25:21;;;;;;;5.00;4.60;;;28.00;31.00;28.50;100722.00;;;;5019000;28;20172;-54
2023/06/12 00:27:47;;;;;;;4.80;4.40;;;28.00;30.90;28.50;100728.00;;;;5011543;28;20766;-54
2023/06/12 00:30:13;;;;;;;5.20;4.80;;;28.00;31.00;28.50;100721.00;;;;5011370;28;20700;-55
2023/06/12 00:32:39;;;;;;;5.80;4.82;;;28.00;30.90;28.50;100726.00;;;;5012759;28;20757;-55
2023/06/12 00:35:06;;;;;;;4.88;4.47;;;27.90;30.80;28.40;100724.00;;;;5014619;28;20200;-55
2023/06/12 00:37:32;;;;;;;5.18;4.78;;;27.90;30.90;28.30;100723.00;;;;5013916;28;20175;-54
2023/06/12 00:39:57;;;;;;;4.93;4.53;;;27.90;31.00;28.40;100715.00;;;;5013744;28;20214;-54
2023/06/12 00:42:31;;;;;;;5.22;4.82;;;27.90;31.10;28.40;100714.00;;;;5014154;28;20557;-54
2023/06/12 00:44:56;;;;;;;5.07;4.57;;;27.90;31.10;28.30;100729.00;;;;4997152;28;20202;-54
2023/06/12 00:47:22;;;;;;;5.18;4.70;;;27.80;31.10;28.30;100717.00;;;;5013632;28;20176;-55
2023/06/12 00:49:48;;;;;;;5.07;4.68;;;27.80;31.20;28.30;100711.00;;;;5013825;28;20179;-54
2023/06/12 00:52:15;;;;;;;5.25;4.72;;;27.90;31.30;28.30;100703.00;;;;5014640;28;20206;-55
2023/06/12 00:54:41;;;;;;;5.97;5.35;;;27.80;31.40;28.30;100706.00;;;;4995970;28;20680;-55
2023/06/12 00:57:07;;;;;;;5.05;4.57;;;27.80;31.40;28.20;100702.00;;;;4996530;28;20175;-55
2023/06/12 00:59:34;;;;;;;5.18;4.78;;;27.80;31.40;28.20;100714.00;;;;5015124;28;20195;-54
2023/06/12 01:02:02;;;;;;;4.90;4.50;;;27.80;31.60;28.20;100702.00;;;;5014197;28;20226;-55
2023/06/12 01:04:28;;;;;;;5.90;5.32;;;27.70;31.60;28.10;100697.00;;;;5013880;28;20175;-55
2023/06/12 01:07:10;;;;;;;5.32;4.85;;;27.70;31.60;28.10;100694.00;;;;4996906;28;20631;-55
2023/06/12 01:09:55;;;;;;;4.72;4.38;;;27.70;31.70;28.10;100703.00;;;;4991984;28;20180;-55
2023/06/12 01:12:21;;;;;;;4.93;4.53;;;27.70;31.80;28.10;100694.00;;;;4992714;28;21009;-54
2023/06/12 01:14:46;;;;;;;5.15;4.65;;;27.60;31.90;28.00;100699.00;;;;4996071;28;20176;-54
2023/06/12 01:17:12;;;;;;;4.97;4.57;;;27.60;31.90;28.00;100693.00;;;;5011524;28;20180;-54
2023/06/12 01:19:38;;;;;;;5.45;4.97;;;27.60;32.00;27.80;100676.00;;;;5012857;28;20204;-55
2023/06/12 01:22:10;;;;;;;4.60;4.30;;;27.60;32.10;27.90;100696.00;;;;5012493;28;20284;-53
2023/06/12 01:25:27;;;;;;;5.00;4.60;;;27.50;32.10;27.90;100705.00;;;;4996622;28;20224;-54
2023/06/12 01:28:12;;;;;;;5.05;4.60;;;27.50;32.20;27.90;100710.00;;;;4977954;28;20218;-54
2023/06/12 01:30:46;;;;;;;5.35;4.90;;;27.50;32.40;27.90;100702.00;;;;5010806;28;20175;-53
2023/06/12 01:33:19;;;;;;;4.93;4.55;;;27.50;32.50;27.90;100715.00;;;;5011567;28;20201;-54
2023/06/12 01:35:46;;;;;;;4.75;4.45;;;27.50;32.60;27.90;100716.00;;;;4978962;28;20178;-55
2023/06/12 01:38:21;;;;;;;6.13;5.00;;;27.50;33.00;27.80;100721.00;;;;4980165;28;20186;-54
2023/06/12 01:40:48;;;;;;;5.15;4.70;;;27.50;33.20;27.80;100714.00;;;;4971183;28;20195;-55
2023/06/12 01:43:14;;;;;;;5.20;4.80;;;27.50;33.20;27.80;100718.00;;;;5011585;28;20270;-54
2023/06/12 01:45:40;;;;;;;5.20;4.70;;;27.50;33.50;27.80;100708.00;;;;5011111;28;20620;-54
2023/06/12 01:48:06;;;;;;;5.20;4.72;;;27.40;33.60;27.80;100709.00;;;;5012709;28;20164;-53
2023/06/12 01:50:32;;;;;;;5.40;4.90;;;27.40;33.70;27.80;100718.00;;;;5013245;28;20199;-53
2023/06/12 01:52:58;;;;;;;4.82;4.53;;;27.40;33.90;27.80;100711.00;;;;5017533;28;20694;-53
2023/06/12 01:55:24;;;;;;;5.32;4.88;;;27.40;34.10;27.80;100708.00;;;;5018935;28;20659;-53
2023/06/12 01:57:50;;;;;;;5.18;4.72;;;27.40;34.20;27.80;100718.00;;;;5016200;28;20179;-53
2023/06/12 02:00:17;;;;;;;4.80;4.40;;;27.40;34.20;27.80;100717.00;;;;5016904;28;20206;-53
2023/06/12 02:02:43;;;;;;;5.00;4.60;;;27.40;34.30;27.80;100714.00;;;;5014531;28;20195;-55
2023/06/12 02:05:10;;;;;;;4.90;4.45;;;27.40;34.40;27.80;100722.00;;;;5016060;28;20241;-52
2023/06/12 02:07:36;;;;;;;4.82;4.43;;;27.40;34.60;27.70;100721.00;;;;5014557;28;20187;-53
2023/06/12 02:10:02;;;;;;;4.47;4.18;;;27.40;34.70;27.70;100712.00;;;;5016591;28;20259;-55
2023/06/12 02:12:29;;;;;;;5.22;4.82;;;27.40;34.90;27.70;100712.00;;;;5023167;28;20298;-54
2023/06/12 02:14:57;;;;;;;4.85;4.43;;;27.40;34.60;27.70;100711.00;;;;5026429;28;20179;-55
2023/06/12 02:17:23;;;;;;;5.00;4.60;;;27.40;34.70;27.70;100719.00;;;;5017772;28;20180;-54
2023/06/12 02:19:49;;;;;;;5.10;4.70;;;27.40;34.60;27.70;100721.00;;;;5017911;28;20242;-54
2023/06/12 02:22:14;;;;;;;5.85;4.80;;;27.40;34.80;27.70;100715.00;;;;5015813;28;20682;-54
2023/06/12 02:24:40;;;;;;;4.93;4.53;;;27.40;35.00;27.70;100714.00;;;;5014871;28;20176;-54
2023/06/12 02:27:06;;;;;;;5.03;4.60;;;27.40;35.00;27.70;100716.00;;;;5021739;28;20289;-53
2023/06/12 02:29:32;;;;;;;4.95;4.65;;;27.40;35.00;27.70;100717.00;;;;5028096;28;20270;-53
2023/06/12 02:31:57;;;;;;;5.30;4.85;;;27.40;35.30;27.70;100709.00;;;;5016323;28;20202;-53
2023/06/12 02:34:23;;;;;;;5.03;4.63;;;27.50;35.40;27.70;100723.00;;;;5016389;28;20191;-54
2023/06/12 02:36:50;;;;;;;4.78;4.38;;;27.50;35.40;27.70;100716.00;;;;5014402;28;20180;-55
2023/06/12 02:39:15;;;;;;;5.03;4.53;;;27.40;35.20;27.60;100720.00;;;;5016659;28;20288;-55
2023/06/12 02:41:45;;;;;;;4.95;4.43;;;27.40;35.60;27.60;100729.00;;;;5015331;28;20204;-54
2023/06/12 02:44:11;;;;;;;4.90;4.50;;;27.40;35.80;27.60;100724.00;;;;5015875;28;20178;-54
2023/06/12 02:46:57;;;;;;;4.90;4.50;;;27.40;35.40;27.60;100724.00;;;;5015885;28;20186;-54
2023/06/12 02:49:28;;;;;;;5.28;4.78;;;27.40;35.60;27.60;100725.00;;;;5016632;28;20190;-54
2023/06/12 02:51:54;;;;;;;5.32;4.90;;;27.40;35.70;27.50;100727.00;;;;5015585;28;20199;-54
2023/06/12 02:54:23;;;;;;;5.00;4.40;;;27.30;35.70;27.50;100731.00;;;;5017733;28;20168;-54
2023/06/12 02:56:48;;;;;;;5.68;5.15;;;27.30;35.60;27.50;100727.00;;;;5015371;28;20171;-54
2023/06/12 02:59:16;;;;;;;5.03;4.63;;;27.30;35.90;27.50;100723.00;;;;5015890;28;20204;-54
2023/06/12 03:01:43;;;;;;;5.75;5.25;;;27.30;36.10;27.50;100720.00;;;;5014823;28;20220;-54
2023/06/12 03:04:18;;;;;;;5.00;4.60;;;27.30;36.60;27.40;100728.00;;;;5015087;28;20677;-53
2023/06/12 03:06:44;;;;;;;5.63;5.13;;;27.40;37.00;27.40;100734.00;;;;5014474;28;20179;-54
2023/06/12 03:09:11;;;;;;;5.32;4.63;;;27.30;36.90;27.40;100733.00;;;;5015719;28;20203;-54
2023/06/12 03:11:36;;;;;;;6.25;4.95;;;27.30;37.60;27.40;100728.00;;;;5015541;28;20203;-57
2023/06/12 03:14:03;;;;;;;4.97;4.57;;;27.30;37.30;27.30;100729.00;;;;5014912;28;20234;-54
2023/06/12 03:16:30;;;;;;;5.32;4.80;;;27.30;37.60;27.30;100732.00;;;;5014756;28;20583;-53
2023/06/12 03:18:57;;;;;;;5.30;4.80;;;27.30;37.60;27.30;100729.00;;;;5016351;28;20214;-53
2023/06/12 03:21:22;;;;;;;5.80;4.90;;;27.30;37.60;27.20;100735.00;;;;5016368;28;20195;-53
2023/06/12 03:23:48;;;;;;;5.03;4.63;;;27.30;37.60;27.20;100737.00;;;;5015163;28;20751;-53
2023/06/12 03:26:14;;;;;;;5.10;4.70;;;27.20;37.60;27.20;100728.00;;;;5016859;28;20635;-54
2023/06/12 03:28:40;;;;;;;5.35;4.95;;;27.20;37.60;27.20;100728.00;;;;5016182;28;20176;-53
2023/06/12 03:31:05;;;;;;;5.30;4.80;;;27.20;37.50;27.10;100734.00;;;;5015605;28;20259;-54
2023/06/12 03:33:31;;;;;;;6.55;5.05;;;27.20;37.90;27.10;100737.00;;;;5015181;28;20175;-54
2023/06/12 03:35:57;;;;;;;5.43;5.03;;;27.10;37.90;27.10;100734.00;;;;5015017;28;20176;-54
2023/06/12 03:38:23;;;;;;;5.47;5.05;;;27.10;38.00;27.00;100730.00;;;;5015334;28;20172;-54
2023/06/12 03:40:48;;;;;;;5.60;4.97;;;27.10;38.30;27.00;100725.00;;;;5015293;28;20337;-54
2023/06/12 03:43:14;;;;;;;5.15;4.75;;;27.10;38.40;27.00;100739.00;;;;5015583;28;20536;-54
2023/06/12 03:45:40;;;;;;;5.13;4.72;;;27.00;38.00;27.00;100735.00;;;;5015021;28;20179;-54
2023/06/12 03:48:06;;;;;;;6.18;5.15;;;27.00;38.20;26.90;100734.00;;;;5015494;28;20175;-54
2023/06/12 03:50:31;;;;;;;7.15;5.20;;;27.00;38.30;26.90;100728.00;;;;5013231;28;20199;-54
2023/06/12 03:52:57;;;;;;;5.68;5.18;;;27.00;38.70;26.90;100734.00;;;;5014550;28;20199;-54
2023/06/12 03:55:23;;;;;;;5.30;4.82;;;27.00;38.40;26.80;100733.00;;;;5009648;28;20206;-53
2023/06/12 03:57:50;;;;;;;5.32;4.90;;;26.90;38.70;26.80;100728.00;;;;5008373;28;20259;-54
2023/06/12 04:00:16;;;;;;;4.90;4.50;;;26.90;38.70;26.80;100732.00;;;;5014060;28;20273;-53
2023/06/12 04:02:43;;;;;;;5.30;4.80;;;26.90;38.70;26.80;100742.00;;;;5015257;28;20253;-54
2023/06/12 04:05:08;;;;;;;6.43;4.95;;;26.80;38.50;26.80;100740.00;;;;5015992;28;20175;-55
2023/06/12 04:07:36;;;;;;;5.63;5.18;;;26.80;38.70;26.70;100740.00;;;;5015823;28;20210;-52
2023/06/12 04:10:03;;;;;;;4.93;4.53;;;26.80;38.90;26.70;100738.00;;;;5014865;28;20201;-55
2023/06/12 04:12:29;;;;;;;5.45;4.97;;;26.80;38.60;26.70;100743.00;;;;5015118;28;20195;-54
2023/06/12 04:14:55;;;;;;;5.75;5.20;;;26.80;39.30;26.70;100740.00;;;;5009528;28;20771;-53
2023/06/12 04:17:21;;;;;;;5.93;5.43;;;26.80;39.30;26.70;100743.00;;;;5007143;28;20176;-52
2023/06/12 04:19:48;;;;;;;5.63;5.13;;;26.70;39.20;26.40;100739.00;;;;5014412;28;20299;-52
2023/06/12 04:22:15;;;;;;;5.18;4.75;;;26.70;39.20;26.60;100738.00;;;;5015231;28;20195;-52
2023/06/12 04:24:42;;;;;;;6.10;5.50;;;26.70;39.20;26.60;100744.00;;;;5016054;28;20176;-55
2023/06/12 04:27:10;;;;;;;4.82;4.47;;;26.70;39.30;26.60;100723.00;;;;5020787;28;20163;-54
2023/06/12 04:29:42;;;;;;;5.25;4.85;;;26.60;39.20;26.60;100739.00;;;;5024063;28;20172;-54
2023/06/12 04:32:09;;;;;;;5.60;5.10;;;26.60;39.30;26.50;100747.00;;;;5015665;28;20191;-54
2023/06/12 04:34:39;;;;;;;5.30;4.80;;;26.60;39.40;26.50;100736.00;;;;5015172;28;20238;-54
2023/06/12 04:37:08;;;;;;;5.38;4.53;;;26.50;39.30;26.50;100736.00;;;;5016153;28;20194;-54
2023/06/12 04:39:45;;;;;;;5.65;4.95;;;26.50;39.30;26.50;100741.00;;;;5012359;28;20325;-54
2023/06/12 04:42:16;;;;;;;5.07;4.68;;;26.50;39.60;26.50;100731.00;;;;5012843;28;20577;-55
2023/06/12 04:44:42;;;;;;;5.03;4.63;;;26.50;39.70;26.40;100740.00;;;;5013673;28;20190;-54
2023/06/12 04:47:10;;;;;;;5.50;5.00;;;26.50;39.90;26.40;100738.00;;;;5011391;28;20254;-54
2023/06/12 04:49:37;;;;;;;5.57;5.10;;;26.50;39.70;26.40;100736.00;;;;5013806;28;20200;-53
2023/06/12 04:52:04;;;;;;;5.65;5.00;;;26.40;39.80;26.40;100736.00;;;;5013644;28;20203;-53
2023/06/12 04:54:38;;;;;;;5.38;4.88;;;26.40;39.80;26.40;100746.00;;;;5014967;28;20187;-52
2023/06/12 04:57:12;;;;;;;5.50;5.07;;;26.40;39.70;26.40;100746.00;;;;5004912;28;20179;-55
2023/06/12 04:59:38;;;;;;;5.80;5.30;;;26.30;39.80;26.30;100738.00;;;;5011936;28;20207;-55
2023/06/12 05:02:06;;;;;;;7.30;5.22;;;26.30;40.00;26.30;100741.00;;;;5011854;28;20275;-55
2023/06/12 05:04:32;;;;;;;5.63;5.13;;;26.30;39.90;26.30;100739.00;;;;5012645;28;20179;-53
2023/06/12 05:07:03;;;;;;;5.00;4.63;;;26.20;39.70;26.30;100750.00;;;;5011796;28;20221;-53
2023/06/12 05:09:29;;;;;;;5.72;5.20;;;26.20;39.70;26.30;100741.00;;;;5012681;28;20265;-53
2023/06/12 05:11:55;;;;;;;5.40;4.88;;;26.10;39.50;26.20;100743.00;;;;5011943;28;20203;-53
2023/06/12 05:14:21;;;;;;;5.25;4.85;;;26.10;39.60;26.20;100740.00;;;;5012109;28;20179;-54
2023/06/12 05:16:48;;;;;;;5.82;5.32;;;26.10;39.80;26.20;100743.00;;;;5014273;28;20234;-55
2023/06/12 05:19:14;;;;;;;5.38;4.97;;;26.10;39.80;26.20;100749.00;;;;5013058;28;20199;-55
2023/06/12 05:21:41;;;;;;;5.82;5.40;;;26.00;39.70;26.20;100742.00;;;;5000449;28;20207;-54
2023/06/12 05:24:07;;;;;;;5.50;5.10;;;26.00;40.00;26.20;100745.00;;;;4999872;28;20178;-52
2023/06/12 05:26:33;;;;;;;5.55;5.15;;;26.00;40.00;26.20;100756.00;;;;4990438;28;20182;-53
2023/06/12 05:29:00;;;;;;;5.35;4.95;;;26.00;40.10;26.20;100747.00;;;;5016724;28;20239;-54
2023/06/12 05:31:28;;;;;;;5.55;5.05;;;26.00;40.20;26.10;100754.00;;;;5016014;28;20283;-55
2023/06/12 05:33:54;;;;;;;6.32;5.25;;;26.00;40.20;26.10;100750.00;;;;5016205;28;20595;-55
2023/06/12 05:36:20;;;;;;;4.93;4.53;;;26.00;40.30;26.10;100756.00;;;;5015191;28;20176;-55
2023/06/12 05:38:46;;;;;;;5.30;4.90;;;25.90;40.30;26.10;100758.00;;;;5017438;28;20183;-55
2023/06/12 05:41:15;;;;;;;5.45;5.05;;;25.90;40.40;26.10;100759.00;;;;5016344;28;20167;-55
2023/06/12 05:43:44;;;;;;;5.75;5.25;;;25.90;40.50;26.10;100755.00;;;;5017006;28;20171;-54
2023/06/12 05:46:10;;;;;;;5.60;5.10;;;25.90;40.80;26.10;100758.00;;;;5016650;28;20226;-54
2023/06/12 05:48:39;;;;;;;5.60;5.10;;;25.90;40.80;25.90;100741.00;;;;5014182;28;20183;-54
2023/06/12 05:51:07;;;;;;;5.97;5.30;;;25.90;41.40;26.10;100753.00;;;;5013341;28;20187;-54
2023/06/12 05:53:33;;;;;;;5.68;5.15;;;25.90;40.60;26.10;100750.00;;;;5022135;28;20398;-54
2023/06/12 05:55:59;;;;;;;5.65;4.95;;;25.90;41.10;26.10;100748.00;;;;4997428;28;20258;-54
2023/06/12 05:58:25;;;;;;;5.60;5.10;;;25.90;41.20;26.10;100748.00;;;;5015233;28;20785;-55
2023/06/12 06:00:52;;;;;;;7.32;4.90;;;25.90;41.20;26.10;100754.00;;;;5014615;28;20274;-54
2023/06/12 06:03:19;;;;;;;5.22;4.82;;;25.90;41.30;26.10;100748.00;;;;5014437;28;20195;-54
2023/06/12 06:05:46;;;;;;;5.72;4.47;;;25.90;41.40;26.10;100755.00;;;;5015489;28;20337;-54
2023/06/12 06:08:12;;;;;;;5.20;4.80;;;25.90;40.90;26.10;100760.00;;;;5013876;28;20230;-54
2023/06/12 06:10:38;;;;;;;5.20;4.80;;;25.90;41.20;26.10;100759.00;;;;5010957;28;20179;-54
2023/06/12 06:13:04;;;;;;;5.00;4.60;;;25.90;41.20;26.10;100762.00;;;;5017340;28;20206;-55
2023/06/12 06:15:29;;;;;;;5.40;4.90;;;25.90;41.10;26.10;100755.00;;;;5025045;28;20694;-55
2023/06/12 06:17:56;;;;;;;5.40;4.90;;;25.90;40.90;26.00;100764.00;;;;5015960;28;20191;-54
2023/06/12 06:20:21;;;;;;;5.85;5.22;;;25.90;41.20;26.10;100758.00;;;;5014401;28;20212;-55
2023/06/12 06:22:47;;;;;;;5.35;4.85;;;25.90;41.20;26.00;100761.00;;;;5014128;28;20340;-55
2023/06/12 06:25:15;;;;;;;5.35;4.60;;;25.90;41.10;26.00;100773.00;;;;5015676;28;20361;-57
2023/06/12 06:27:41;;;;;;;5.50;5.00;;;25.90;41.00;26.00;100764.00;;;;5016182;28;20232;-55
2023/06/12 06:30:07;;;;;;;5.32;4.93;;;26.00;41.10;26.00;100766.00;;;;5024773;28;20199;-56
2023/06/12 06:32:33;;;;;;;5.10;4.70;;;25.90;41.00;26.00;100782.00;;;;5007701;28;20200;-55
2023/06/12 06:34:58;;;;;;;5.00;4.60;;;25.90;41.10;26.00;100771.00;;;;5015023;28;20180;-54
2023/06/12 06:37:24;;;;;;;5.18;4.78;;;25.90;41.20;26.00;100762.00;;;;5013707;28;20179;-54
2023/06/12 06:39:50;;;;;;;5.13;4.72;;;25.90;41.20;26.00;100780.00;;;;5015572;28;20191;-55
2023/06/12 06:42:15;;;;;;;5.40;4.97;;;25.90;41.20;26.00;100785.00;;;;5009398;28;20200;-54
2023/06/12 06:44:41;;;;;;;5.47;5.07;;;25.90;41.40;26.00;100782.00;;;;5011921;28;20180;-55
2023/06/12 06:47:10;;;;;;;4.90;4.53;;;25.90;41.40;26.00;100782.00;;;;5009198;28;20175;-54
2023/06/12 06:49:37;;;;;;;5.07;4.68;;;25.90;41.40;26.00;100788.00;;;;5014363;28;20196;-54
2023/06/12 06:52:04;;;;;;;5.60;5.20;;;25.80;41.30;26.00;100779.00;;;;5013204;28;20199;-54
2023/06/12 06:54:30;;;;;;;5.47;5.07;;;25.80;41.40;26.00;100778.00;;;;5013870;28;20175;-54
2023/06/12 06:56:56;;;;;;;5.57;4.80;;;25.80;41.30;26.00;100777.00;;;;5022567;28;20180;-55
2023/06/12 06:59:23;;;;;;;5.40;5.00;;;25.80;41.40;26.00;100789.00;;;;5014923;28;20298;-54
2023/06/12 07:01:49;;;;;;;4.85;4.47;;;25.80;41.50;25.90;100788.00;;;;5014002;28;20187;-54
2023/06/12 07:04:14;;;;;;;5.47;5.03;;;25.80;41.50;25.90;100781.00;;;;5013092;28;20716;-55
2023/06/12 07:06:40;;;;;;;5.45;5.05;;;25.80;41.50;25.90;100773.00;;;;5010324;28;20713;-54
2023/06/12 07:09:07;;;;;;;4.95;4.55;;;25.70;41.50;26.00;100776.00;;;;5013546;28;20548;-54
2023/06/12 07:11:33;;;;;;;4.97;4.57;;;25.80;41.70;25.90;100780.00;;;;5012981;28;20199;-55
2023/06/12 07:13:59;;;;;;;5.25;4.85;;;25.70;41.70;26.00;100774.00;;;;5013995;28;20182;-54
2023/06/12 07:16:24;;;;;;;5.20;4.80;;;25.70;41.80;25.90;100769.00;;;;5012860;28;20183;-54
2023/06/12 07:18:50;;;;;;;5.22;4.82;;;25.70;41.80;25.90;100775.00;;;;4996692;28;20310;-54
2023/06/12 07:21:16;;;;;;;5.03;4.63;;;25.70;41.70;25.90;100773.00;;;;5013426;28;20199;-54
2023/06/12 07:23:42;;;;;;;5.15;4.75;;;25.70;41.70;25.90;100767.00;;;;5013806;28;20229;-55
2023/06/12 07:26:07;;;;;;;5.40;5.00;;;25.70;41.70;25.90;100774.00;;;;5012212;28;20210;-54
2023/06/12 07:28:34;;;;;;;5.50;5.00;;;25.70;41.90;26.00;100777.00;;;;5013030;28;20179;-55
2023/06/12 07:30:59;;;;;;;4.93;4.43;;;25.70;42.20;26.00;100784.00;;;;5012894;28;20172;-54
2023/06/12 07:33:25;;;;;;;5.00;4.60;;;25.70;42.40;26.00;100772.00;;;;5013202;28;20237;-54
2023/06/12 07:35:51;;;;;;;4.90;4.50;;;25.70;42.50;26.10;100780.00;;;;5011673;28;20234;-54
2023/06/12 07:38:16;;;;;;;6.05;5.00;;;25.70;42.40;26.10;100773.00;;;;5011747;28;20175;-54
2023/06/12 07:40:42;;;;;;;5.65;5.03;;;25.70;42.60;26.10;100778.00;;;;5007112;28;20200;-54
2023/06/12 07:43:08;;;;;;;5.70;5.20;;;25.80;42.80;26.20;100774.00;;;;5011508;28;20188;-54
2023/06/12 07:45:34;;;;;;;5.30;4.90;;;25.80;42.80;26.20;100775.00;;;;5016881;28;20187;-55
2023/06/12 07:47:59;;;;;;;5.40;5.00;;;25.80;42.90;26.20;100776.00;;;;5011094;28;20167;-55
2023/06/12 07:50:25;;;;;;;5.30;4.90;;;25.70;42.90;26.20;100770.00;;;;5010632;28;20241;-56
2023/06/12 07:52:51;;;;;;;5.60;5.10;;;25.80;43.10;26.20;100775.00;;;;5010298;28;20203;-55
2023/06/12 07:55:18;;;;;;;5.30;4.90;;;25.80;43.10;26.20;100759.00;;;;5010099;28;20614;-53
2023/06/12 07:57:44;;;;;;;5.28;4.78;;;25.80;43.20;26.20;100758.00;;;;5014006;28;20195;-54
2023/06/12 08:00:11;;;;;;;5.30;4.80;;;25.80;43.20;26.20;100759.00;;;;5009009;28;20196;-55
2023/06/12 08:02:38;;;;;;;5.20;4.90;;;25.80;43.40;26.20;100765.00;;;;5004778;28;20207;-55
2023/06/12 08:05:06;;;;;;;5.38;4.97;;;25.90;43.30;26.30;100756.00;;;;5012710;28;20693;-55
2023/06/12 08:07:33;;;;;;;4.70;4.40;;;25.90;42.90;26.30;100758.00;;;;5013308;28;20179;-55
2023/06/12 08:09:58;;;;;;;5.40;4.93;;;25.90;42.90;26.30;100760.00;;;;5012513;28;20266;-54
2023/06/12 08:12:24;;;;;;;5.53;5.03;;;25.90;42.80;26.30;100751.00;;;;5012599;28;20335;-55
2023/06/12 08:14:51;;;;;;;5.30;4.90;;;25.90;42.90;26.30;100752.00;;;;5014002;28;20179;-54
2023/06/12 08:17:17;;;;;;;4.93;4.63;;;25.90;43.00;26.30;100750.00;;;;5012944;28;20175;-55
2023/06/12 08:19:43;;;;;;;5.32;4.93;;;26.00;43.00;26.30;100746.00;;;;5014478;28;20204;-56
2023/06/12 08:22:09;;;;;;;5.40;5.00;;;26.00;43.00;26.40;100750.00;;;;5007473;28;20203;-55
2023/06/12 08:24:36;;;;;;;4.90;4.40;;;26.00;43.00;26.40;100745.00;;;;5000085;28;20266;-55
2023/06/12 08:27:02;;;;;;;5.53;5.03;;;26.00;43.20;26.40;100743.00;;;;5012356;28;20255;-55
2023/06/12 08:29:28;;;;;;;5.47;5.07;;;26.00;43.50;26.40;100737.00;;;;5004338;28;20186;-55
2023/06/12 08:31:54;;;;;;;4.90;4.50;;;26.10;43.40;26.50;100737.00;;;;5010968;28;20670;-55
2023/06/12 08:34:24;;;;;;;5.07;4.68;;;26.10;43.50;26.50;100745.00;;;;5014917;28;20665;-55
2023/06/12 08:36:51;;;;;;;5.22;4.80;;;26.10;43.70;26.50;100742.00;;;;5012841;28;20263;-54
2023/06/12 08:39:17;;;;;;;5.20;4.80;;;26.10;43.90;26.50;100734.00;;;;5016922;28;20222;-54
2023/06/12 08:42:09;;;;;;;5.93;4.95;;;26.10;43.80;26.50;100738.00;;;;5012014;28;20195;-54
2023/06/12 08:44:35;;;;;;;5.63;5.15;;;26.10;43.70;26.50;100731.00;;;;5010920;28;20182;-54
2023/06/12 08:47:02;;;;;;;5.25;4.82;;;26.10;43.70;26.50;100728.00;;;;5011315;28;20167;-56
2023/06/12 08:49:29;;;;;;;5.65;5.20;;;26.20;43.50;26.50;100743.00;;;;4992441;28;20188;-54
2023/06/12 08:51:55;;;;;;;5.90;5.40;;;26.10;43.70;26.60;100730.00;;;;5007964;28;20282;-55
2023/06/12 08:54:21;;;;;;;5.00;4.70;;;26.10;43.80;26.60;100728.00;;;;5008964;28;20485;-55
2023/06/12 08:56:46;;;;;;;6.50;5.10;;;26.20;44.10;26.60;100718.00;;;;4991642;28;20235;-55
2023/06/12 08:59:13;;;;;;;5.43;4.78;;;26.20;44.50;26.60;100720.00;;;;5008425;28;20697;-55
2023/06/12 09:01:39;;;;;;;5.50;5.10;;;26.20;44.30;26.70;100722.00;;;;5007891;28;20210;-55
2023/06/12 09:04:28;;;;;;;5.40;5.00;;;26.20;44.20;26.70;100720.00;;;;5009818;28;20266;-55
2023/06/12 09:07:03;;;;;;;5.28;4.88;;;26.20;43.90;26.70;100724.00;;;;5009615;28;20646;-54
2023/06/12 09:09:38;;;;;;;5.28;4.88;;;26.20;43.80;26.70;100720.00;;;;5010390;28;20179;-56
2023/06/12 09:12:07;;;;;;;5.68;5.18;;;26.20;44.10;26.70;100719.00;;;;5009809;28;20201;-55
2023/06/12 09:14:34;;;;;;;5.28;4.88;;;26.20;44.20;26.70;100730.00;;;;5011151;28;20191;-52
2023/06/12 09:17:03;;;;;;;7.15;5.13;;;26.20;44.50;26.70;100718.00;;;;5008560;28;20184;-52
2023/06/12 09:19:45;;;;;;;5.18;4.78;;;26.30;44.80;26.80;100723.00;;;;5008344;28;20210;-54
2023/06/12 09:22:12;;;;;;;6.13;4.93;;;26.30;45.10;26.80;100727.00;;;;5006901;28;20192;-53
2023/06/12 09:24:38;;;;;;;4.90;4.50;;;26.30;45.10;26.80;100722.00;;;;5008313;28;20217;-53
2023/06/12 09:27:04;;;;;;;6.90;4.60;;;26.30;45.40;26.80;100721.00;;;;5008907;28;20315;-53
2023/06/12 09:29:36;;;;;;;5.63;5.00;;;26.30;45.30;26.80;100730.00;;;;5008270;28;20725;-53
2023/06/12 09:32:03;;;;;;;6.07;4.70;;;26.30;45.40;26.90;100720.00;;;;5010760;28;20283;-54
2023/06/12 09:34:31;;;;;;;5.68;4.63;;;26.30;45.50;26.90;100730.00;;;;5010791;28;20271;-53
2023/06/12 09:36:58;;;;;;;7.35;4.63;;;26.30;45.50;26.90;100725.00;;;;5002627;28;20176;-54
2023/06/12 09:39:27;;;;;;;4.90;4.50;;;26.30;45.50;27.00;100731.00;;;;5005272;28;20203;-54
2023/06/12 09:41:57;;;;;;;5.82;4.60;;;26.40;45.70;27.00;100736.00;;;;4996165;28;20218;-53
2023/06/12 09:44:28;;;;;;;8.18;4.60;;;26.40;45.70;27.00;100736.00;;;;5000167;28;20183;-53
2023/06/12 09:47:02;;;;;;;4.72;4.32;;;26.40;45.70;27.00;100727.00;;;;5005116;28;20311;-52
2023/06/12 09:49:28;;;;;;;4.93;4.43;;;26.40;45.80;27.00;100726.00;;;;4987937;28;20662;-52
2023/06/12 09:51:54;;;;;;;4.70;4.40;;;26.40;45.80;27.00;100722.00;;;;5003303;28;20209;-53
2023/06/12 09:54:21;;;;;;;6.03;4.47;;;26.40;45.80;27.00;100733.00;;;;5007633;28;20186;-53
2023/06/12 09:56:49;;;;;;;5.03;4.63;;;26.40;45.80;27.10;100733.00;;;;5002512;28;20176;-53
2023/06/12 09:59:19;;;;;;;4.90;4.18;;;26.40;45.80;27.10;100736.00;;;;5008762;28;20195;-52
2023/06/12 10:01:47;;;;;;;4.68;4.38;;;26.50;45.90;27.10;100740.00;;;;5004517;28;20282;-53
2023/06/12 10:04:15;;;;;;;4.53;4.15;;;26.50;45.90;27.10;100719.00;;;;5008869;28;20647;-52
2023/06/12 10:06:40;;;;;;;4.60;4.20;;;26.50;46.00;27.10;100715.00;;;;4983100;28;20182;-52
2023/06/12 10:09:06;;;;;;;4.63;4.22;;;26.50;46.00;27.20;100722.00;;;;4991427;28;20183;-51
2023/06/12 10:11:33;;;;;;;4.80;4.40;;;26.50;45.90;27.20;100721.00;;;;5007348;28;20583;-52
2023/06/12 10:13:59;;;;;;;5.00;4.60;;;26.60;46.00;27.20;100735.00;;;;4995205;28;20547;-52
2023/06/12 10:16:25;;;;;;;4.63;4.15;;;26.60;46.00;27.20;100728.00;;;;4994150;28;20172;-52
2023/06/12 10:18:51;;;;;;;4.80;4.40;;;26.60;46.10;27.20;100717.00;;;;5010768;28;20180;-52
2023/06/12 10:21:19;;;;;;;4.40;4.10;;;26.60;46.00;27.30;100727.00;;;;4993371;28;20235;-52
2023/06/12 10:23:44;;;;;;;4.50;4.20;;;26.60;46.10;27.30;100732.00;;;;4994409;28;20179;-52
2023/06/12 10:26:10;;;;;;;4.70;4.30;;;26.60;46.20;27.30;100729.00;;;;5010665;28;20235;-53
2023/06/12 10:28:36;;;;;;;4.20;3.90;;;26.60;46.10;27.30;100722.00;;;;5012126;28;20665;-53
2023/06/12 10:31:13;;;;;;;4.55;4.25;;;26.60;46.20;27.30;100717.00;;;;5017557;28;20191;-53
2023/06/12 10:33:58;;;;;;;4.55;4.18;;;26.70;46.20;27.40;100730.00;;;;5017718;28;20179;-52
2023/06/12 10:36:24;;;;;;;4.57;4.18;;;26.70;46.30;27.40;100713.00;;;;5010202;28;20632;-52
2023/06/12 10:39:00;;;;;;;4.55;4.15;;;26.70;46.40;27.40;100715.00;;;;5012261;28;20168;-51
2023/06/12 10:41:32;;;;;;;4.78;4.40;;;26.70;46.40;27.40;100718.00;;;;5011471;28;20253;-53
2023/06/12 10:43:58;;;;;;;5.13;4.70;;;26.70;46.40;27.50;100712.00;;;;5011731;28;20588;-53
2023/06/12 10:46:44;;;;;;;4.68;4.30;;;26.80;46.50;27.50;100706.00;;;;5016351;28;20299;-54
2023/06/12 10:49:11;;;;;;;4.18;3.88;;;26.80;46.50;27.50;100704.00;;;;5019216;28;20183;-52